Time;durP1;ratioP1;P1;durP2;ratioP2;P2;SDS_P1;SDS_P2;PMS_P1;PMS_P2;Temp;Humidity;BMP_temperature;BMP_pressure;BME280_temperature;BME280_humidity;BME280_pressure;Samples;Min_cycle;Max_cycle;Signal;HPM_P1;HPM_P2
2022/11/10 00:00:30;;;;;;;14.95;4.32;;;10.20;99.90;;;;;;4896326;29;20037;-78
2022/11/10 00:03:00;;;;;;;22.35;4.93;;;10.20;99.90;;;;;;4897639;29;20044;-78
2022/11/10 00:05:27;;;;;;;10.43;3.83;;;10.20;99.90;;;;;;4897937;29;20021;-77
2022/11/10 00:07:52;;;;;;;20.27;4.63;;;10.20;99.90;;;;;;4897792;29;20032;-76
2022/11/10 00:10:18;;;;;;;13.52;4.70;;;10.20;99.90;;;;;;4898797;29;20029;-75
2022/11/10 00:12:43;;;;;;;17.08;4.35;;;10.20;99.90;;;;;;4898420;29;20056;-74
2022/11/10 00:17:55;;;;;;;12.82;3.60;;;10.10;99.90;;;;;;4898297;29;20039;-74
2022/11/10 00:20:20;;;;;;;16.45;4.45;;;10.10;99.90;;;;;;4897051;29;20049;-73
2022/11/10 00:22:46;;;;;;;14.25;3.67;;;10.10;99.90;;;;;;4896394;29;20037;-74
2022/11/10 00:25:12;;;;;;;16.08;4.18;;;10.10;99.90;;;;;;4896900;29;20033;-74
2022/11/10 00:27:40;;;;;;;17.33;4.28;;;10.10;99.90;;;;;;4880051;29;20033;-74
2022/11/10 00:30:06;;;;;;;15.05;3.90;;;10.10;99.90;;;;;;4897377;29;20049;-72
2022/11/10 00:32:32;;;;;;;18.95;4.65;;;10.10;99.90;;;;;;4896958;29;20049;-77
2022/11/10 00:34:58;;;;;;;14.45;4.00;;;10.10;99.90;;;;;;4897207;29;20044;-75
2022/11/10 00:37:33;;;;;;;16.33;4.47;;;10.10;99.90;;;;;;4897218;29;20028;-73
2022/11/10 00:39:59;;;;;;;11.50;4.05;;;10.20;99.90;;;;;;4897189;29;20462;-74
2022/11/10 00:42:30;;;;;;;13.85;3.90;;;10.10;99.90;;;;;;4895267;29;20529;-73
2022/11/10 00:44:56;;;;;;;13.30;4.78;;;10.10;99.90;;;;;;4898222;29;20032;-74
2022/11/10 00:47:22;;;;;;;16.65;5.03;;;10.10;99.90;;;;;;4897749;29;20033;-76
2022/11/10 00:49:47;;;;;;;17.13;4.50;;;10.10;99.90;;;;;;4897931;29;20093;-75
2022/11/10 00:52:13;;;;;;;19.48;4.82;;;10.10;99.90;;;;;;4896935;29;20033;-72
2022/11/10 00:54:42;;;;;;;17.20;5.45;;;10.10;99.90;;;;;;4896983;29;20066;-73
2022/11/10 00:57:08;;;;;;;16.25;4.85;;;10.10;99.90;;;;;;4897182;29;20089;-74
2022/11/10 00:59:33;;;;;;;10.38;4.70;;;10.10;99.90;;;;;;4896348;29;20072;-74
2022/11/10 01:01:59;;;;;;;13.85;5.10;;;10.10;99.90;;;;;;4897293;29;20051;-75
2022/11/10 01:04:28;;;;;;;12.02;4.90;;;10.00;99.90;;;;;;4896943;29;20839;-76
2022/11/10 01:06:54;;;;;;;16.27;6.07;;;10.00;99.90;;;;;;4896378;29;20054;-72
2022/11/10 01:09:19;;;;;;;18.23;5.95;;;10.00;99.90;;;;;;4896359;29;20097;-74
2022/11/10 01:11:45;;;;;;;14.95;5.63;;;10.00;99.90;;;;;;4896845;29;20088;-77
2022/11/10 01:14:11;;;;;;;16.58;5.97;;;10.00;99.90;;;;;;4894587;29;20044;-76
2022/11/10 01:16:36;;;;;;;14.50;6.53;;;10.00;99.90;;;;;;4896469;29;20028;-74
2022/11/10 01:19:03;;;;;;;14.45;5.95;;;10.00;99.90;;;;;;4887302;29;20028;-74
2022/11/10 01:21:29;;;;;;;24.60;7.20;;;9.90;99.90;;;;;;4897077;29;20052;-74
2022/11/10 01:23:56;;;;;;;20.85;6.85;;;10.00;99.90;;;;;;4895505;29;20077;-74
2022/11/10 01:26:25;;;;;;;28.20;7.07;;;9.90;99.90;;;;;;4895804;29;20091;-75
2022/11/10 01:28:51;;;;;;;22.65;7.90;;;9.90;99.90;;;;;;4894501;29;20096;-74
2022/11/10 01:31:19;;;;;;;19.80;7.35;;;9.90;99.90;;;;;;4896613;29;20044;-75
2022/11/10 01:33:45;;;;;;;21.02;7.32;;;10.00;99.90;;;;;;4894802;29;20029;-75
2022/11/10 01:36:11;;;;;;;19.02;7.80;;;9.90;99.90;;;;;;4895376;29;20374;-76
2022/11/10 01:38:38;;;;;;;19.20;7.75;;;9.80;99.90;;;;;;4895284;29;20037;-75
2022/11/10 01:41:06;;;;;;;23.48;7.50;;;9.80;99.90;;;;;;4896343;29;20045;-77
2022/11/10 01:43:33;;;;;;;17.35;8.60;;;9.90;99.90;;;;;;4898331;29;20029;-74
2022/11/10 01:46:11;;;;;;;20.90;8.40;;;9.80;99.90;;;;;;4896642;29;20052;-74
2022/11/10 01:48:40;;;;;;;21.65;9.05;;;9.90;99.90;;;;;;4896171;29;20080;-74
2022/11/10 01:51:19;;;;;;;19.42;8.10;;;9.90;99.90;;;;;;4896522;29;20028;-75
2022/11/10 01:53:54;;;;;;;20.83;9.10;;;9.90;99.90;;;;;;4897951;29;20044;-76
2022/11/10 01:56:21;;;;;;;23.40;8.95;;;9.90;99.90;;;;;;4897007;29;20021;-74
2022/11/10 01:58:55;;;;;;;21.27;8.95;;;9.90;99.90;;;;;;4896267;29;20021;-73
2022/11/10 02:01:21;;;;;;;25.67;9.85;;;9.90;99.90;;;;;;4896432;29;20092;-74
2022/11/10 02:03:48;;;;;;;22.08;8.82;;;9.90;99.90;;;;;;4896246;29;20036;-73
2022/11/10 02:06:15;;;;;;;25.17;9.27;;;9.80;99.90;;;;;;4895946;29;20032;-76
2022/11/10 02:08:43;;;;;;;28.48;9.77;;;9.80;99.90;;;;;;4894161;29;20036;-76
2022/11/10 02:11:09;;;;;;;29.75;10.15;;;9.90;99.90;;;;;;4895774;29;20029;-73
2022/11/10 02:13:35;;;;;;;19.58;8.60;;;9.90;99.90;;;;;;4880442;29;20032;-73
2022/11/10 02:16:00;;;;;;;26.00;9.43;;;9.90;99.90;;;;;;4895748;29;20024;-73
2022/11/10 02:18:26;;;;;;;26.23;9.85;;;9.90;99.90;;;;;;4896473;29;20048;-75
2022/11/10 02:20:52;;;;;;;26.63;9.65;;;9.80;99.90;;;;;;4895667;29;20032;-75
2022/11/10 02:23:30;;;;;;;37.95;10.60;;;9.80;99.90;;;;;;4894951;29;20487;-74
2022/11/10 02:25:56;;;;;;;22.13;9.20;;;9.80;99.90;;;;;;4896578;29;20033;-77
2022/11/10 02:28:26;;;;;;;22.23;9.43;;;9.70;99.90;;;;;;4894749;29;20099;-76
2022/11/10 02:30:53;;;;;;;26.02;10.02;;;9.70;99.90;;;;;;4895494;29;20025;-76
2022/11/10 02:33:19;;;;;;;26.58;9.38;;;9.70;99.90;;;;;;4896028;29;20021;-75
2022/11/10 02:35:46;;;;;;;27.50;9.75;;;9.60;99.90;;;;;;4895953;29;20088;-75
2022/11/10 02:38:12;;;;;;;27.60;10.52;;;9.70;99.90;;;;;;4893767;29;20024;-76
2022/11/10 02:40:38;;;;;;;23.33;9.45;;;9.60;99.90;;;;;;4879028;29;20037;-76
2022/11/10 02:43:09;;;;;;;27.38;10.07;;;9.70;99.90;;;;;;4880004;29;20040;-75
2022/11/10 02:45:40;;;;;;;27.52;9.73;;;9.60;99.90;;;;;;4894456;29;20123;-75
2022/11/10 02:48:07;;;;;;;27.42;10.38;;;9.50;99.90;;;;;;4894165;29;20079;-76
2022/11/10 02:50:32;;;;;;;23.58;9.77;;;9.50;99.90;;;;;;4896600;29;20045;-74
2022/11/10 02:52:58;;;;;;;23.52;9.98;;;9.50;99.90;;;;;;4895518;29;20037;-75
2022/11/10 02:55:24;;;;;;;35.13;10.48;;;9.50;99.90;;;;;;4896004;29;20036;-75
2022/11/10 02:57:49;;;;;;;28.00;11.00;;;9.50;99.90;;;;;;4896582;29;20033;-74
2022/11/10 03:00:15;;;;;;;31.25;10.10;;;9.40;99.90;;;;;;4895793;29;20036;-74
2022/11/10 03:02:41;;;;;;;34.85;10.25;;;9.40;99.90;;;;;;4895835;29;20469;-76
2022/11/10 03:05:07;;;;;;;25.35;10.00;;;9.40;99.90;;;;;;4895786;29;20039;-75
2022/11/10 03:07:32;;;;;;;29.60;10.15;;;9.40;99.90;;;;;;4878406;29;20031;-74
2022/11/10 03:09:58;;;;;;;36.78;10.70;;;9.40;99.90;;;;;;4895828;29;20108;-76
2022/11/10 03:12:23;;;;;;;33.47;10.30;;;9.30;99.90;;;;;;4895672;29;20053;-74
2022/11/10 03:14:49;;;;;;;29.17;10.48;;;9.40;99.90;;;;;;4895378;29;20037;-75
2022/11/10 03:17:15;;;;;;;30.75;10.32;;;9.30;99.90;;;;;;4895607;29;20029;-74
2022/11/10 03:19:40;;;;;;;31.50;9.65;;;9.30;99.90;;;;;;4894887;29;20036;-76
2022/11/10 03:22:06;;;;;;;39.15;11.32;;;9.30;99.90;;;;;;4893960;29;20044;-76
2022/11/10 03:24:31;;;;;;;28.13;10.00;;;9.30;99.90;;;;;;4880156;29;20042;-74
2022/11/10 03:26:57;;;;;;;29.25;10.45;;;9.20;99.90;;;;;;4877183;29;20048;-75
2022/11/10 03:29:23;;;;;;;33.55;10.45;;;9.20;99.90;;;;;;4891627;29;20033;-76
2022/11/10 03:31:55;;;;;;;35.95;11.15;;;9.30;99.90;;;;;;4875582;29;20201;-76
2022/11/10 03:34:21;;;;;;;25.38;9.30;;;9.30;99.90;;;;;;4894374;29;20542;-77
2022/11/10 03:36:47;;;;;;;34.72;11.63;;;9.30;99.90;;;;;;4878896;29;20114;-73
2022/11/10 03:39:12;;;;;;;25.10;10.10;;;9.20;99.90;;;;;;4862958;29;20105;-75
2022/11/10 03:41:38;;;;;;;31.48;10.60;;;9.30;99.90;;;;;;4862786;29;20048;-74
2022/11/10 03:44:04;;;;;;;29.17;10.00;;;9.30;99.90;;;;;;4879032;29;20081;-75
2022/11/10 03:46:29;;;;;;;28.05;9.57;;;9.20;99.90;;;;;;4878570;29;20483;-76
2022/11/10 03:48:55;;;;;;;31.48;10.35;;;9.30;99.90;;;;;;4878514;29;20131;-73
2022/11/10 03:51:21;;;;;;;31.30;10.95;;;9.30;99.90;;;;;;4878607;29;20022;-73
2022/11/10 03:53:46;;;;;;;28.40;10.45;;;9.20;99.90;;;;;;4879647;29;20045;-74
2022/11/10 03:56:12;;;;;;;33.88;10.32;;;9.30;99.90;;;;;;4879811;29;20081;-75
2022/11/10 03:58:38;;;;;;;37.60;10.05;;;9.30;99.90;;;;;;4893317;29;20470;-74
2022/11/10 04:01:04;;;;;;;28.73;11.10;;;9.20;99.90;;;;;;4879397;29;20048;-77
2022/11/10 04:03:35;;;;;;;34.95;10.77;;;9.20;99.90;;;;;;4879921;29;20029;-74
2022/11/10 04:09:00;;;;;;;28.20;11.43;;;9.20;99.90;;;;;;4879728;29;20052;-77
2022/11/10 04:16:56;;;;;;;;;;;9.20;99.90;;;;;;4879860;29;20504;-73
2022/11/10 04:19:22;;;;;;;28.38;9.27;;;9.20;99.90;;;;;;4877857;29;19971;-73
2022/11/10 04:21:47;;;;;;;31.67;10.63;;;9.20;99.90;;;;;;4878980;29;20040;-75
2022/11/10 04:24:13;;;;;;;33.25;10.77;;;9.10;99.90;;;;;;4890733;29;20105;-72
2022/11/10 04:26:41;;;;;;;38.17;10.90;;;9.10;99.90;;;;;;4897690;29;20033;-74
2022/11/10 04:29:09;;;;;;;33.47;11.02;;;9.20;99.90;;;;;;4897461;29;20025;-75
2022/11/10 04:31:39;;;;;;;38.88;11.18;;;9.10;99.90;;;;;;4897663;29;20479;-76
2022/11/10 04:34:13;;;;;;;29.17;9.98;;;9.20;99.90;;;;;;4897842;29;20036;-78
2022/11/10 04:36:41;;;;;;;31.52;9.82;;;9.10;99.90;;;;;;4880772;29;20036;-75
2022/11/10 04:39:08;;;;;;;35.40;9.77;;;9.10;99.90;;;;;;4880174;29;20037;-73
2022/11/10 04:41:35;;;;;;;27.25;10.30;;;9.10;99.90;;;;;;4897384;29;20037;-76
2022/11/10 04:44:01;;;;;;;22.95;10.13;;;9.20;99.90;;;;;;4896582;29;20047;-75
2022/11/10 04:46:38;;;;;;;39.30;11.00;;;9.10;99.90;;;;;;4897604;29;20021;-75
2022/11/10 04:49:05;;;;;;;32.72;10.75;;;9.10;99.90;;;;;;4895718;29;20029;-74
2022/11/10 04:51:36;;;;;;;24.55;10.00;;;9.10;99.90;;;;;;4896924;29;20072;-75
2022/11/10 04:54:03;;;;;;;29.75;9.60;;;9.10;99.90;;;;;;4896086;29;20092;-75
2022/11/10 04:56:29;;;;;;;41.08;10.13;;;9.10;99.90;;;;;;4896169;29;20040;-75
2022/11/10 04:58:55;;;;;;;36.25;11.40;;;9.10;99.90;;;;;;4895532;29;20064;-75
2022/11/10 05:01:24;;;;;;;37.72;10.45;;;9.10;99.90;;;;;;4897515;29;20041;-75
2022/11/10 05:03:51;;;;;;;39.03;11.30;;;9.20;99.90;;;;;;4895652;29;20032;-76
2022/11/10 05:06:17;;;;;;;35.08;12.30;;;9.20;99.90;;;;;;4879704;29;20017;-77
2022/11/10 05:08:43;;;;;;;36.40;11.65;;;9.10;99.90;;;;;;4880466;29;20061;-76
2022/11/10 05:11:10;;;;;;;32.08;10.90;;;9.10;99.90;;;;;;4895387;29;20020;-74
2022/11/10 05:13:35;;;;;;;29.80;10.85;;;9.10;99.90;;;;;;4896672;29;20033;-75
2022/11/10 05:16:01;;;;;;;27.35;10.10;;;9.10;99.90;;;;;;4897384;29;20032;-79
2022/11/10 05:18:27;;;;;;;31.63;10.75;;;9.10;99.90;;;;;;4879796;29;20033;-76
2022/11/10 05:20:53;;;;;;;34.08;10.10;;;9.00;99.90;;;;;;4879435;29;20033;-74
2022/11/10 05:23:37;;;;;;;33.10;11.07;;;9.10;99.90;;;;;;4887277;29;20052;-76
2022/11/10 05:26:16;;;;;;;28.92;10.55;;;9.10;99.90;;;;;;4879587;29;20040;-77
2022/11/10 05:28:43;;;;;;;34.22;11.77;;;9.10;99.90;;;;;;4896739;29;20089;-75
2022/11/10 05:31:21;;;;;;;25.98;10.77;;;9.10;99.90;;;;;;4896149;29;20032;-75
2022/11/10 05:33:46;;;;;;;35.55;11.43;;;9.10;99.90;;;;;;4896160;29;20145;-76
2022/11/10 05:36:12;;;;;;;34.92;12.75;;;9.10;99.90;;;;;;4879377;29;20020;-76
2022/11/10 05:38:37;;;;;;;30.65;12.95;;;9.10;99.90;;;;;;4896662;29;20029;-77
2022/11/10 05:41:14;;;;;;;45.38;12.95;;;9.10;99.90;;;;;;4879264;29;20029;-73
2022/11/10 05:43:40;;;;;;;36.15;14.23;;;9.10;99.90;;;;;;4896688;29;20501;-74
2022/11/10 05:46:05;;;;;;;33.75;14.40;;;9.20;99.90;;;;;;4896303;29;20037;-75
2022/11/10 05:48:31;;;;;;;37.75;14.13;;;9.10;99.90;;;;;;4896082;29;20494;-77
2022/11/10 05:50:57;;;;;;;44.08;15.43;;;9.10;99.90;;;;;;4895570;29;20021;-76
2022/11/10 05:53:23;;;;;;;35.95;15.05;;;9.20;99.90;;;;;;4894741;29;20117;-77
2022/11/10 05:55:48;;;;;;;46.15;16.38;;;9.10;99.90;;;;;;4895088;29;20383;-75
2022/11/10 05:58:14;;;;;;;50.35;16.42;;;9.20;99.90;;;;;;4894439;29;20032;-74
2022/11/10 06:00:40;;;;;;;42.40;17.02;;;9.10;99.90;;;;;;4895714;29;20040;-74
2022/11/10 06:03:15;;;;;;;42.13;16.23;;;9.10;99.90;;;;;;4894343;29;20043;-78
2022/11/10 06:05:41;;;;;;;54.88;17.42;;;9.10;99.90;;;;;;4879056;29;20092;-77
2022/11/10 06:08:07;;;;;;;45.85;16.80;;;9.10;99.90;;;;;;4894747;29;20048;-78
2022/11/10 06:10:34;;;;;;;48.92;17.27;;;9.10;99.90;;;;;;4896564;29;20037;-76
2022/11/10 06:13:01;;;;;;;48.83;17.30;;;9.10;99.90;;;;;;4894517;29;20033;-77
2022/11/10 06:15:27;;;;;;;45.15;17.92;;;9.10;99.90;;;;;;4894096;29;20033;-78
2022/11/10 06:17:54;;;;;;;46.88;18.45;;;9.10;99.90;;;;;;4894199;29;20048;-76
2022/11/10 06:20:20;;;;;;;42.53;17.75;;;9.10;99.90;;;;;;4896097;29;20029;-78
2022/11/10 06:23:01;;;;;;;42.28;19.55;;;9.10;99.90;;;;;;4879088;29;20079;-78
2022/11/10 06:25:29;;;;;;;46.83;19.17;;;9.20;99.90;;;;;;4888286;29;20040;-77
2022/11/10 06:27:55;;;;;;;57.97;21.05;;;9.20;99.90;;;;;;4896242;29;20104;-74
2022/11/10 06:30:21;;;;;;;54.10;21.10;;;9.20;99.90;;;;;;4894076;29;20068;-77
2022/11/10 06:32:47;;;;;;;52.33;21.58;;;9.20;99.90;;;;;;4878856;29;20458;-75
2022/11/10 06:35:12;;;;;;;53.65;21.55;;;9.20;99.90;;;;;;4895854;29;20944;-74
2022/11/10 06:37:38;;;;;;;57.85;19.27;;;9.30;99.90;;;;;;4878144;29;20073;-72
2022/11/10 06:40:06;;;;;;;58.60;22.83;;;9.30;99.90;;;;;;4895527;29;20403;-77
2022/11/10 06:42:32;;;;;;;57.63;23.15;;;9.30;99.90;;;;;;4895745;29;20045;-76
2022/11/10 06:45:01;;;;;;;67.57;22.73;;;9.30;99.90;;;;;;4895788;29;20060;-78
2022/11/10 06:47:27;;;;;;;49.60;21.95;;;9.30;99.90;;;;;;4896076;29;20036;-77
2022/11/10 06:49:53;;;;;;;52.15;23.02;;;9.30;99.90;;;;;;4895651;29;20016;-73
2022/11/10 06:52:19;;;;;;;58.90;24.02;;;9.30;99.90;;;;;;4895525;29;20528;-77
2022/11/10 06:54:47;;;;;;;53.85;23.88;;;9.30;99.90;;;;;;4895249;29;20084;-78
2022/11/10 06:57:13;;;;;;;62.33;23.58;;;9.30;99.90;;;;;;4896118;29;20037;-75
2022/11/10 06:59:38;;;;;;;61.53;24.08;;;9.40;99.90;;;;;;4897339;29;20096;-77
2022/11/10 07:02:05;;;;;;;61.45;25.25;;;9.40;99.90;;;;;;4880200;29;20044;-75
2022/11/10 07:04:30;;;;;;;59.35;24.73;;;9.40;99.90;;;;;;4897013;29;20024;-76
2022/11/10 07:06:57;;;;;;;67.13;23.95;;;9.40;99.90;;;;;;4894598;29;20081;-75
2022/11/10 07:09:27;;;;;;;59.45;24.00;;;9.40;99.90;;;;;;4889891;29;20120;-77
2022/11/10 07:11:53;;;;;;;67.65;26.15;;;9.40;99.90;;;;;;4898188;29;20083;-77
2022/11/10 07:14:19;;;;;;;61.20;25.15;;;9.50;99.90;;;;;;4897798;29;20029;-77
2022/11/10 07:16:44;;;;;;;62.90;24.15;;;9.50;99.90;;;;;;4883565;29;20029;-78
2022/11/10 07:19:38;;;;;;;61.88;26.38;;;9.50;99.90;;;;;;4883105;29;20092;-80
2022/11/10 07:22:03;;;;;;;65.50;25.58;;;9.50;99.90;;;;;;4898907;29;20390;-78
2022/11/10 07:24:29;;;;;;;65.97;26.70;;;9.60;99.90;;;;;;4869277;29;20053;-79
2022/11/10 07:26:58;;;;;;;65.60;23.98;;;9.60;99.90;;;;;;4881652;29;20044;-77
2022/11/10 07:29:24;;;;;;;66.97;26.42;;;9.60;99.90;;;;;;4879875;29;20037;-77
2022/11/10 07:31:50;;;;;;;58.97;25.33;;;9.60;99.90;;;;;;4881376;29;20029;-79
2022/11/10 07:34:16;;;;;;;51.95;25.02;;;9.70;99.90;;;;;;4878736;29;20029;-77
2022/11/10 07:36:41;;;;;;;56.88;25.42;;;9.80;99.90;;;;;;4879996;29;20049;-78
2022/11/10 07:39:16;;;;;;;66.22;26.33;;;9.80;99.90;;;;;;4879061;29;20025;-80
2022/11/10 07:41:42;;;;;;;55.47;24.35;;;9.90;99.90;;;;;;4893350;29;20041;-74
2022/11/10 07:44:07;;;;;;;60.08;24.48;;;9.90;99.90;;;;;;4879554;29;20040;-73
2022/11/10 07:46:33;;;;;;;56.83;24.42;;;10.00;99.90;;;;;;4879714;29;20191;-77
2022/11/10 07:48:59;;;;;;;67.97;25.73;;;10.00;99.90;;;;;;4878222;29;20056;-76
2022/11/10 07:51:25;;;;;;;61.88;25.48;;;10.00;99.90;;;;;;4880265;29;20025;-79
2022/11/10 07:53:51;;;;;;;59.00;26.58;;;10.00;99.90;;;;;;4879749;29;20128;-76
2022/11/10 07:56:17;;;;;;;58.65;24.15;;;10.10;99.90;;;;;;4877926;29;20060;-77
2022/11/10 07:58:42;;;;;;;56.90;24.60;;;10.20;99.90;;;;;;4879754;29;20052;-77
2022/11/10 08:01:08;;;;;;;54.78;23.63;;;10.20;99.90;;;;;;4880398;29;20435;-78
2022/11/10 08:03:34;;;;;;;51.45;22.88;;;10.20;99.90;;;;;;4864991;29;20418;-75
2022/11/10 08:06:00;;;;;;;63.10;24.08;;;10.20;99.90;;;;;;4881234;29;20043;-78
2022/11/10 08:08:25;;;;;;;54.83;23.42;;;10.20;99.90;;;;;;4880405;29;20029;-72
2022/11/10 08:10:51;;;;;;;59.80;23.27;;;10.20;99.90;;;;;;4878298;29;20065;-74
2022/11/10 08:13:17;;;;;;;56.75;24.17;;;10.20;99.90;;;;;;4878384;29;20061;-73
2022/11/10 08:15:42;;;;;;;56.30;22.92;;;10.20;99.90;;;;;;4863288;29;20060;-76
2022/11/10 08:18:17;;;;;;;53.92;21.80;;;10.30;99.90;;;;;;4892049;29;20052;-76
2022/11/10 08:20:43;;;;;;;58.20;23.05;;;10.30;99.90;;;;;;4877483;29;20036;-75
2022/11/10 08:23:09;;;;;;;52.45;20.42;;;10.40;99.90;;;;;;4882747;29;20060;-74
2022/11/10 08:25:36;;;;;;;51.22;19.50;;;10.50;99.90;;;;;;4881705;29;20036;-75
2022/11/10 08:28:08;;;;;;;60.58;23.52;;;10.60;99.90;;;;;;4897503;29;20171;-75
2022/11/10 08:30:35;;;;;;;54.00;21.85;;;10.60;99.90;;;;;;4881672;29;20033;-78
2022/11/10 08:33:01;;;;;;;46.17;19.95;;;10.70;99.90;;;;;;4899736;29;20092;-77
2022/11/10 08:35:30;;;;;;;54.85;20.73;;;10.70;99.90;;;;;;4882335;29;20030;-77
2022/11/10 08:37:56;;;;;;;54.13;20.55;;;10.70;99.90;;;;;;4881901;29;20024;-78
2022/11/10 08:40:26;;;;;;;46.63;18.80;;;10.80;99.90;;;;;;4884172;29;20025;-79
2022/11/10 08:42:59;;;;;;;42.42;19.40;;;10.80;99.90;;;;;;4899109;29;20375;-78
2022/11/10 08:45:25;;;;;;;54.55;18.63;;;10.80;99.90;;;;;;4898863;29;20161;-79
2022/11/10 08:48:02;;;;;;;43.65;18.92;;;10.80;99.90;;;;;;4880664;29;20033;-74
2022/11/10 08:50:29;;;;;;;52.15;20.67;;;10.80;99.90;;;;;;4896828;29;20032;-75
2022/11/10 08:52:55;;;;;;;51.03;19.42;;;10.90;99.90;;;;;;4898687;29;20114;-73
2022/11/10 08:55:21;;;;;;;52.13;18.98;;;10.90;99.90;;;;;;4897097;29;20561;-76
2022/11/10 08:57:47;;;;;;;51.15;17.65;;;10.90;99.90;;;;;;4897314;29;20033;-75
2022/11/10 09:00:15;;;;;;;41.42;17.30;;;10.90;99.90;;;;;;4881224;29;20401;-76
2022/11/10 09:02:40;;;;;;;41.60;17.13;;;10.90;99.90;;;;;;4880892;29;20070;-75
2022/11/10 09:05:09;;;;;;;47.53;17.15;;;10.90;99.90;;;;;;4880606;29;20028;-74
2022/11/10 09:07:46;;;;;;;37.55;15.85;;;10.90;99.90;;;;;;4895979;29;20029;-73
2022/11/10 09:10:12;;;;;;;47.95;16.73;;;11.00;99.90;;;;;;4897430;29;20037;-76
2022/11/10 09:12:39;;;;;;;40.83;15.70;;;11.00;99.90;;;;;;4881447;29;20123;-75
2022/11/10 09:15:07;;;;;;;40.95;14.02;;;11.10;99.90;;;;;;4897223;29;20100;-74
2022/11/10 09:17:33;;;;;;;45.60;16.42;;;11.20;99.90;;;;;;4895865;29;20077;-78
2022/11/10 09:19:58;;;;;;;41.17;16.98;;;11.20;99.90;;;;;;4895023;29;20043;-77
2022/11/10 09:22:24;;;;;;;40.22;14.30;;;11.30;99.90;;;;;;4899562;29;20033;-77
2022/11/10 09:24:49;;;;;;;49.08;15.15;;;11.40;99.90;;;;;;4883449;29;20417;-72
2022/11/10 09:27:15;;;;;;;38.85;15.55;;;11.50;99.90;;;;;;4898418;29;20059;-77
2022/11/10 09:29:41;;;;;;;37.13;14.23;;;11.50;99.90;;;;;;4881322;29;20039;-77
2022/11/10 09:32:06;;;;;;;32.00;13.50;;;11.60;99.90;;;;;;4897220;29;20037;-79
2022/11/10 09:34:32;;;;;;;33.28;12.48;;;11.70;99.90;;;;;;4897051;29;20033;-79
2022/11/10 09:36:58;;;;;;;38.17;14.85;;;11.80;99.90;;;;;;4897500;29;20505;-78
2022/11/10 09:39:24;;;;;;;31.55;13.30;;;11.90;99.90;;;;;;4879157;29;20028;-79
2022/11/10 09:41:49;;;;;;;37.42;13.32;;;12.00;99.90;;;;;;4895690;29;20051;-76
2022/11/10 09:44:28;;;;;;;44.30;13.73;;;12.20;99.90;;;;;;4881039;29;20043;-78
2022/11/10 09:47:11;;;;;;;39.67;12.57;;;12.30;99.90;;;;;;4898402;29;20055;-75
2022/11/10 09:49:59;;;;;;;35.40;12.77;;;12.40;99.90;;;;;;4897553;29;20111;-79
2022/11/10 09:52:28;;;;;;;37.58;11.52;;;12.50;99.90;;;;;;4895541;29;20044;-77
2022/11/10 09:54:58;;;;;;;30.85;10.52;;;12.50;99.90;;;;;;4895685;29;20021;-75
2022/11/10 09:57:25;;;;;;;34.35;10.90;;;12.50;99.90;;;;;;4908289;29;20064;-77
2022/11/10 09:59:52;;;;;;;39.97;11.20;;;12.50;99.90;;;;;;4896126;29;20101;-75
2022/11/10 10:02:27;;;;;;;31.45;11.35;;;12.40;99.90;;;;;;4895182;29;20064;-74
2022/11/10 10:05:02;;;;;;;38.33;11.25;;;12.40;99.90;;;;;;4896900;29;20032;-76
2022/11/10 10:07:39;;;;;;;25.42;10.30;;;12.40;99.90;;;;;;4890875;29;20044;-74
2022/11/10 10:10:27;;;;;;;27.33;10.73;;;12.60;99.90;;;;;;4896414;29;20084;-74
2022/11/10 10:13:05;;;;;;;35.83;12.40;;;12.70;99.90;;;;;;4884845;29;20041;-75
2022/11/10 10:15:39;;;;;;;36.20;11.80;;;12.80;99.90;;;;;;4879306;29;20032;-75
2022/11/10 10:18:14;;;;;;;35.88;12.10;;;12.80;99.90;;;;;;4910936;29;20038;-76
2022/11/10 10:20:46;;;;;;;41.95;11.88;;;12.80;99.90;;;;;;4910668;29;20061;-76
2022/11/10 10:23:17;;;;;;;35.38;10.82;;;12.70;99.90;;;;;;4895667;29;20063;-72
2022/11/10 10:25:44;;;;;;;37.22;12.43;;;12.70;99.90;;;;;;4887316;29;20021;-74
2022/11/10 10:28:29;;;;;;;30.98;11.20;;;12.60;99.90;;;;;;4896208;29;20080;-78
2022/11/10 10:31:00;;;;;;;;;;;12.60;99.90;;;;;;4896781;29;20032;-74
2022/11/10 10:33:27;;;;;;;27.20;9.77;;;12.60;99.90;;;;;;4896109;29;19912;-73
2022/11/10 10:35:53;;;;;;;29.95;11.30;;;12.60;99.90;;;;;;4879744;29;20037;-74
2022/11/10 10:38:29;;;;;;;33.95;11.23;;;12.60;99.90;;;;;;4896808;29;20039;-74
2022/11/10 10:41:16;;;;;;;37.75;11.15;;;12.60;99.90;;;;;;4897187;29;20025;-77
2022/11/10 10:43:47;;;;;;;27.75;10.75;;;12.60;99.90;;;;;;4898568;29;20036;-73
2022/11/10 10:46:19;;;;;;;30.40;9.95;;;12.70;99.90;;;;;;4900570;29;20037;-73
2022/11/10 10:48:44;;;;;;;31.77;10.63;;;12.70;99.90;;;;;;4898477;29;20470;-74
2022/11/10 10:51:25;;;;;;;31.67;8.70;;;12.90;99.90;;;;;;4900195;29;20125;-72
2022/11/10 10:53:51;;;;;;;25.15;9.23;;;13.00;99.90;;;;;;4883172;29;20093;-72
2022/11/10 10:56:21;;;;;;;22.00;9.02;;;13.30;99.90;;;;;;4897696;29;20056;-74
2022/11/10 10:58:55;;;;;;;24.00;8.77;;;13.40;99.90;;;;;;4899073;29;20029;-74
2022/11/10 11:01:37;;;;;;;35.95;8.75;;;13.60;99.90;;;;;;4883220;29;20044;-74
2022/11/10 11:04:30;;;;;;;33.10;8.13;;;13.70;99.90;;;;;;4901289;29;20033;-75
2022/11/10 11:07:02;;;;;;;22.08;7.82;;;13.90;99.90;;;;;;4895235;29;20051;-74
2022/11/10 11:09:39;;;;;;;25.20;7.97;;;14.00;99.90;;;;;;4889336;29;20092;-76
2022/11/10 11:12:26;;;;;;;27.95;7.50;;;14.00;99.90;;;;;;4883892;29;20033;-80
2022/11/10 11:15:09;;;;;;;20.60;7.25;;;14.10;99.90;;;;;;4883960;29;20056;-75
2022/11/10 11:17:37;;;;;;;25.52;7.80;;;14.10;99.90;;;;;;4882247;29;20024;-76
2022/11/10 11:20:05;;;;;;;30.55;7.55;;;14.20;99.90;;;;;;4900532;29;20086;-74
2022/11/10 11:22:36;;;;;;;24.25;6.70;;;14.40;99.90;;;;;;4898482;29;20035;-75
2022/11/10 11:25:32;;;;;;;33.47;7.57;;;14.60;99.90;;;;;;4865062;29;20091;-76
2022/11/10 11:28:16;;;;;;;23.88;7.53;;;14.50;99.90;;;;;;4880781;29;20055;-77
2022/11/10 11:31:08;;;;;;;23.67;7.43;;;14.70;99.90;;;;;;4879439;29;20033;-76
2022/11/10 11:33:40;;;;;;;18.50;7.05;;;14.60;99.90;;;;;;4882744;29;20033;-79
2022/11/10 11:36:26;;;;;;;24.60;6.45;;;14.30;99.90;;;;;;4879547;29;20033;-79
2022/11/10 11:39:30;;;;;;;25.48;6.65;;;14.10;99.90;;;;;;4879561;29;20112;-81
2022/11/10 11:42:18;;;;;;;23.55;6.53;;;13.80;99.90;;;;;;4880702;29;21559;-80
2022/11/10 11:45:11;;;;;;;19.17;6.30;;;13.70;99.90;;;;;;4879616;29;20115;-77
2022/11/10 11:48:09;;;;;;;20.45;6.05;;;13.60;99.90;;;;;;4864780;29;20029;-76
2022/11/10 11:50:44;;;;;;;24.33;6.75;;;13.50;99.90;;;;;;4811740;29;20048;-76
2022/11/10 11:53:36;;;;;;;16.77;5.65;;;13.50;99.90;;;;;;4879583;29;20066;-73
2022/11/10 11:56:25;;;;;;;11.15;4.72;;;13.40;99.90;;;;;;4881250;29;20033;-76
2022/11/10 11:59:03;;;;;;;25.60;6.50;;;13.40;99.90;;;;;;4880149;29;20037;-73
2022/11/10 12:01:53;;;;;;;32.72;6.40;;;13.40;99.90;;;;;;4879721;29;20037;-77
2022/11/10 12:04:33;;;;;;;22.80;5.85;;;13.40;99.90;;;;;;4879054;29;20037;-78
2022/11/10 12:07:03;;;;;;;22.58;5.88;;;13.50;99.90;;;;;;4879497;29;20033;-75
2022/11/10 12:09:48;;;;;;;18.75;5.57;;;13.40;99.90;;;;;;4881250;29;20026;-78
2022/11/10 12:12:13;;;;;;;26.83;6.40;;;13.40;99.90;;;;;;4878302;29;20033;-78
2022/11/10 12:14:51;;;;;;;22.15;5.40;;;13.40;99.90;;;;;;4879280;29;20081;-73
2022/11/10 12:17:45;;;;;;;19.33;5.85;;;13.40;99.90;;;;;;4879527;29;20025;-76
2022/11/10 12:20:35;;;;;;;17.08;5.70;;;13.40;99.90;;;;;;4880324;29;20056;-74
2022/11/10 12:23:22;;;;;;;21.85;5.43;;;13.40;99.90;;;;;;4883303;29;20098;-74
2022/11/10 12:25:55;;;;;;;23.63;5.50;;;13.40;99.90;;;;;;4881216;29;20063;-76
2022/11/10 12:28:30;;;;;;;23.95;5.70;;;13.50;99.90;;;;;;4896683;29;20950;-75
2022/11/10 12:30:59;;;;;;;20.40;4.93;;;13.40;99.90;;;;;;4898376;29;20626;-79
2022/11/10 12:33:43;;;;;;;22.10;5.00;;;13.40;99.90;;;;;;4879483;29;20044;-76
2022/11/10 12:36:16;;;;;;;20.48;4.78;;;13.40;99.90;;;;;;4899997;29;20029;-82
2022/11/10 12:38:55;;;;;;;26.73;5.55;;;13.40;99.90;;;;;;4898598;29;20111;-78
2022/11/10 12:41:21;;;;;;;22.65;5.47;;;13.40;99.90;;;;;;4895859;29;20037;-83
2022/11/10 12:44:06;;;;;;;27.80;5.20;;;13.40;99.90;;;;;;4898721;29;20028;-74
2022/11/10 12:46:31;;;;;;;21.30;5.38;;;13.40;99.90;;;;;;4889364;29;20052;-78
2022/11/10 12:49:16;;;;;;;22.27;5.72;;;13.40;99.90;;;;;;4898003;29;20060;-77
2022/11/10 12:51:41;;;;;;;;;;;13.40;99.90;;;;;;4896780;29;20041;-78
2022/11/10 12:54:13;;;;;;;17.20;5.10;;;13.40;99.90;;;;;;4897412;29;19923;-77
2022/11/10 12:56:47;;;;;;;15.75;5.32;;;13.40;99.90;;;;;;4880004;29;20041;-73
2022/11/10 12:59:33;;;;;;;24.48;4.97;;;13.40;99.90;;;;;;4896405;29;20101;-79